createdAt,value
2018-11-14T00:00:53.932Z,5.80
2018-11-14T00:03:22.579Z,5.80
2018-11-14T00:05:51.319Z,5.50
2018-11-14T00:08:20.310Z,5.60
2018-11-14T00:10:48.953Z,5.80
2018-11-14T00:13:17.965Z,5.80
2018-11-14T00:15:46.686Z,5.80
2018-11-14T00:18:15.767Z,5.90
2018-11-14T00:20:44.818Z,6.00
2018-11-14T00:23:13.453Z,6.00
2018-11-14T00:25:42.617Z,5.70
2018-11-14T00:28:11.248Z,5.60
2018-11-14T00:30:40.180Z,5.50
2018-11-14T00:33:08.885Z,5.50
2018-11-14T00:35:37.709Z,5.80
2018-11-14T00:38:06.714Z,5.70
2018-11-14T00:40:35.442Z,5.50
2018-11-14T00:43:04.063Z,5.50
2018-11-14T00:45:32.953Z,5.50
2018-11-14T00:48:01.689Z,5.30
2018-11-14T00:50:30.343Z,5.30
2018-11-14T00:52:59.075Z,5.20
2018-11-14T00:55:27.991Z,5.10
2018-11-14T00:57:57.070Z,5.20
2018-11-14T01:00:26.211Z,5.10
2018-11-14T01:02:55.258Z,5.40
2018-11-14T01:05:24.147Z,5.30
2018-11-14T01:07:53.225Z,5.50
2018-11-14T01:10:22.737Z,5.30
2018-11-14T01:12:52.054Z,5.20
2018-11-14T01:15:22.407Z,5.10
2018-11-14T01:17:51.139Z,5.20
2018-11-14T01:20:21.052Z,5.40
2018-11-14T01:22:50.212Z,5.20
2018-11-14T01:25:19.162Z,5.10
2018-11-14T01:27:48.355Z,4.90
2018-11-14T01:30:18.781Z,4.70
2018-11-14T01:32:48.264Z,4.80
2018-11-14T01:35:17.576Z,4.80
2018-11-14T01:37:46.781Z,4.60
2018-11-14T01:40:18.305Z,4.80
2018-11-14T01:42:48.656Z,4.90
2018-11-14T01:45:17.756Z,4.80
2018-11-14T01:47:46.473Z,4.80
2018-11-14T01:50:15.160Z,4.90
2018-11-14T01:52:43.957Z,4.80
2018-11-14T01:55:16.392Z,4.90
2018-11-14T01:57:45.360Z,5.10
2018-11-14T02:00:16.104Z,5.00
2018-11-14T02:02:44.850Z,5.20
2018-11-14T02:05:14.100Z,5.10
2018-11-14T02:07:42.794Z,5.30
2018-11-14T02:10:14.300Z,5.30
2018-11-14T02:12:43.949Z,5.10
2018-11-14T02:15:14.964Z,5.20
2018-11-14T02:17:43.725Z,5.10
2018-11-14T02:20:13.014Z,4.90
2018-11-14T02:22:42.551Z,4.90
2018-11-14T02:25:12.052Z,4.90
2018-11-14T02:27:41.203Z,4.80
2018-11-14T02:30:12.832Z,4.80
2018-11-14T02:32:41.774Z,4.80
2018-11-14T02:35:11.135Z,4.80
2018-11-14T02:37:41.399Z,4.70
2018-11-14T02:40:12.540Z,4.80
2018-11-14T02:42:41.579Z,4.80
2018-11-14T02:45:11.394Z,4.70
2018-11-14T02:47:40.431Z,4.60
2018-11-14T02:50:10.614Z,4.80
2018-11-14T02:52:39.378Z,5.00
2018-11-14T02:55:14.576Z,5.10
2018-11-14T02:57:43.965Z,5.10
2018-11-14T03:00:15.796Z,5.20
2018-11-14T03:02:51.229Z,4.80
2018-11-14T03:05:20.252Z,4.90
2018-11-14T03:07:49.213Z,4.90
2018-11-14T03:10:19.786Z,4.60
2018-11-14T03:12:48.732Z,4.80
2018-11-14T03:15:19.678Z,4.60
2018-11-14T03:17:48.299Z,4.70
2018-11-14T03:20:19.284Z,4.60
2018-11-14T03:22:48.330Z,4.50
2018-11-14T03:25:16.930Z,4.50
2018-11-14T03:27:45.957Z,4.50
2018-11-14T03:30:16.985Z,4.50
2018-11-14T03:32:46.134Z,4.50
2018-11-14T03:35:15.366Z,4.40
2018-11-14T03:37:44.517Z,4.40
2018-11-14T03:40:14.932Z,4.30
2018-11-14T03:42:43.949Z,4.30
2018-11-14T03:45:13.988Z,4.20
2018-11-14T03:47:43.072Z,4.40
2018-11-14T03:50:12.178Z,4.50
2018-11-14T03:52:40.856Z,4.30
2018-11-14T03:55:18.311Z,4.40
2018-11-14T03:57:47.131Z,4.40
2018-11-14T04:00:18.537Z,4.50
2018-11-14T04:02:47.730Z,4.40
2018-11-14T04:05:16.690Z,4.40
2018-11-14T04:07:45.596Z,4.40
2018-11-14T04:10:15.169Z,4.50
2018-11-14T04:12:44.080Z,4.50
2018-11-14T04:15:14.268Z,4.40
2018-11-14T04:17:43.329Z,4.30
2018-11-14T04:20:14.052Z,4.10
2018-11-14T04:22:43.238Z,4.10
2018-11-14T04:25:17.241Z,4.10
2018-11-14T04:27:47.566Z,4.00
2018-11-14T04:30:19.672Z,4.00
2018-11-14T04:32:48.407Z,4.00
2018-11-14T04:35:18.212Z,3.90
2018-11-14T04:37:46.914Z,3.90
2018-11-14T04:40:17.830Z,4.00
2018-11-14T04:42:46.517Z,4.00
2018-11-14T04:45:20.255Z,4.00
2018-11-14T04:47:49.191Z,4.00
2018-11-14T04:50:19.933Z,4.00
2018-11-14T04:52:49.452Z,3.90
2018-11-14T04:55:19.608Z,3.90
2018-11-14T04:57:49.140Z,4.00
2018-11-14T05:00:19.043Z,4.10
2018-11-14T05:02:48.727Z,4.10
2018-11-14T05:05:19.786Z,4.10
2018-11-14T05:07:48.878Z,3.90
2018-11-14T05:10:19.883Z,3.80
2018-11-14T05:12:49.130Z,3.90
2018-11-14T05:15:19.209Z,4.00
2018-11-14T05:17:48.707Z,4.00
2018-11-14T05:20:18.348Z,4.10
2018-11-14T05:22:47.574Z,4.00
2018-11-14T05:25:16.245Z,4.10
2018-11-14T05:27:44.950Z,4.20
2018-11-14T05:30:15.699Z,4.20
2018-11-14T05:32:45.753Z,4.10
2018-11-14T05:35:14.874Z,4.10
2018-11-14T05:37:43.865Z,3.90
2018-11-14T05:40:17.620Z,4.00
2018-11-14T05:42:47.404Z,4.10
2018-11-14T05:45:22.101Z,4.20
2018-11-14T05:47:50.941Z,4.10
2018-11-14T05:50:21.092Z,4.10
2018-11-14T05:52:49.998Z,4.10
2018-11-14T05:55:18.864Z,4.10
2018-11-14T05:57:47.933Z,4.00
2018-11-14T06:00:34.436Z,4.00
2018-11-14T06:03:04.508Z,4.10
2018-11-14T06:05:34.092Z,4.10
2018-11-14T06:08:04.008Z,4.00
2018-11-14T06:10:33.202Z,4.10
2018-11-14T06:13:02.273Z,4.10
2018-11-14T06:15:31.383Z,4.10
2018-11-14T06:18:00.282Z,4.10
2018-11-14T06:20:29.330Z,4.10
2018-11-14T06:22:58.467Z,4.20
2018-11-14T06:25:30.068Z,4.10
2018-11-14T06:28:00.269Z,4.00
2018-11-14T06:30:29.466Z,4.30
2018-11-14T06:32:58.741Z,4.30
2018-11-14T06:35:27.796Z,4.20
2018-11-14T06:37:56.819Z,4.10
2018-11-14T06:40:25.558Z,4.10
2018-11-14T06:42:57.265Z,4.10
2018-11-14T06:45:28.104Z,4.20
2018-11-14T06:47:58.260Z,4.30
2018-11-14T06:50:26.903Z,4.30
2018-11-14T06:52:58.214Z,4.30
2018-11-14T06:55:27.176Z,4.20
2018-11-14T06:57:56.295Z,4.10
2018-11-14T07:00:29.075Z,4.30
2018-11-14T07:02:58.911Z,4.40
2018-11-14T07:05:27.804Z,4.30
2018-11-14T07:07:56.501Z,4.10
2018-11-14T07:10:26.920Z,4.10
2018-11-14T07:13:00.035Z,4.10
2018-11-14T07:15:28.898Z,4.20
2018-11-14T07:17:57.837Z,4.20
2018-11-14T07:20:27.944Z,4.20
2018-11-14T07:22:56.905Z,4.20
2018-11-14T07:25:25.933Z,4.30
2018-11-14T07:27:58.167Z,4.40
2018-11-14T07:30:28.133Z,4.30
2018-11-14T07:32:58.569Z,4.30
2018-11-14T07:35:27.627Z,4.40
2018-11-14T07:38:59.908Z,4.40
2018-11-14T07:41:34.814Z,4.30
2018-11-14T07:44:04.045Z,4.40
2018-11-14T07:46:33.649Z,4.40
2018-11-14T07:49:02.495Z,4.40
2018-11-14T07:51:31.853Z,4.40
2018-11-14T07:54:00.704Z,4.40
2018-11-14T07:56:29.506Z,4.40
2018-11-14T07:58:58.465Z,4.30
2018-11-14T08:01:27.203Z,4.20
2018-11-14T08:03:55.888Z,4.10
2018-11-14T08:06:24.941Z,4.20
2018-11-14T08:08:53.871Z,4.30
2018-11-14T08:11:22.769Z,4.40
2018-11-14T08:13:51.527Z,4.40
2018-11-14T08:16:20.604Z,4.30
2018-11-14T08:18:49.989Z,4.30
2018-11-14T08:21:19.343Z,4.30
2018-11-14T08:23:48.532Z,4.30
2018-11-14T08:26:17.504Z,4.40
2018-11-14T08:28:46.493Z,4.50
2018-11-14T08:31:15.625Z,4.40
2018-11-14T08:33:44.787Z,4.60
2018-11-14T08:36:17.130Z,4.50
2018-11-14T08:38:45.904Z,4.50
2018-11-14T08:41:14.753Z,4.50
2018-11-14T08:43:43.467Z,4.30
2018-11-14T08:46:12.510Z,4.40
2018-11-14T08:48:41.352Z,4.40
2018-11-14T08:51:10.084Z,4.60
2018-11-14T08:53:38.878Z,4.70
2018-11-14T08:56:07.917Z,4.80
2018-11-14T08:58:36.905Z,4.90
2018-11-14T09:01:06.134Z,4.80
2018-11-14T09:03:34.849Z,4.80
2018-11-14T09:06:03.941Z,4.90
2018-11-14T09:08:32.827Z,4.90
2018-11-14T09:11:01.765Z,5.00
2018-11-14T09:13:30.423Z,5.00
2018-11-14T09:15:59.089Z,5.00
2018-11-14T09:18:28.339Z,4.90
2018-11-14T09:20:57.168Z,4.90
2018-11-14T09:23:25.941Z,4.90
2018-11-14T09:25:55.163Z,4.90
2018-11-14T09:28:24.143Z,5.00
2018-11-14T09:30:53.021Z,5.00
2018-11-14T09:33:21.705Z,5.00
2018-11-14T09:35:50.605Z,5.10
2018-11-14T09:38:19.418Z,5.30
2018-11-14T09:40:48.603Z,5.30
2018-11-14T09:43:17.328Z,5.30
2018-11-14T09:45:46.748Z,5.30
2018-11-14T09:48:15.398Z,5.40
2018-11-14T09:50:44.147Z,5.60
2018-11-14T09:53:12.872Z,5.70
2018-11-14T09:55:41.531Z,5.70
2018-11-14T09:58:10.593Z,5.80
2018-11-14T10:00:40.137Z,6.00
2018-11-14T10:03:13.855Z,6.10
2018-11-14T10:05:42.508Z,6.10
2018-11-14T10:08:11.585Z,6.20
2018-11-14T10:10:40.790Z,6.30
2018-11-14T10:13:09.649Z,6.30
2018-11-14T10:15:38.456Z,6.20
2018-11-14T10:18:08.014Z,6.20
2018-11-14T10:20:37.226Z,6.30
2018-11-14T10:23:06.588Z,6.30
2018-11-14T10:25:35.424Z,6.30
2018-11-14T10:28:04.414Z,6.30
2018-11-14T10:30:33.074Z,6.20
2018-11-14T10:33:01.754Z,6.30
2018-11-14T10:35:30.731Z,6.20
2018-11-14T10:37:59.439Z,6.30
2018-11-14T10:40:29.043Z,6.40
2018-11-14T10:42:57.935Z,6.70
2018-11-14T10:45:27.786Z,6.80
2018-11-14T10:47:56.828Z,6.70
2018-11-14T10:50:26.879Z,6.70
2018-11-14T10:52:55.661Z,7.10
2018-11-14T10:55:24.959Z,7.20
2018-11-14T10:57:54.243Z,7.30
2018-11-14T11:00:29.632Z,7.40
2018-11-14T11:03:04.593Z,7.30
2018-11-14T11:05:38.723Z,7.30
2018-11-14T11:08:12.601Z,7.30
2018-11-14T11:10:46.712Z,7.60
2018-11-14T11:13:20.782Z,7.40
2018-11-14T11:15:55.013Z,7.60
2018-11-14T11:18:56.321Z,7.60
2018-11-14T11:21:25.028Z,7.50
2018-11-14T11:23:53.937Z,8.00
2018-11-14T11:26:22.832Z,8.20
2018-11-14T11:28:51.704Z,8.50
2018-11-14T11:31:20.502Z,9.00
2018-11-14T11:33:49.568Z,8.70
2018-11-14T11:36:19.006Z,8.90
2018-11-14T11:38:47.721Z,9.10
2018-11-14T11:41:16.509Z,9.10
2018-11-14T11:43:45.186Z,9.10
2018-11-14T11:46:14.030Z,9.20
2018-11-14T11:48:43.168Z,9.20
2018-11-14T11:51:12.131Z,9.20
2018-11-14T11:53:40.967Z,9.20
2018-11-14T11:56:09.746Z,9.00
2018-11-14T11:58:38.842Z,9.10
2018-11-14T12:01:08.336Z,9.30
2018-11-14T12:03:37.283Z,9.30
2018-11-14T12:06:06.885Z,9.40
2018-11-14T12:08:35.792Z,9.40
2018-11-14T12:11:04.593Z,9.50
2018-11-14T12:13:33.375Z,9.50
2018-11-14T12:16:02.111Z,9.20
2018-11-14T12:18:30.773Z,9.10
2018-11-14T12:20:59.626Z,9.00
2018-11-14T12:23:28.918Z,9.10
2018-11-14T12:25:58.010Z,9.20
2018-11-14T12:28:27.146Z,9.30
2018-11-14T12:30:56.068Z,8.70
2018-11-14T12:33:24.729Z,8.90
2018-11-14T12:35:53.504Z,8.70
2018-11-14T12:38:22.258Z,8.40
2018-11-14T12:40:51.258Z,8.40
2018-11-14T12:43:19.961Z,8.40
2018-11-14T12:45:48.833Z,8.50
2018-11-14T12:48:17.839Z,8.80
2018-11-14T12:50:46.624Z,9.10
2018-11-14T12:53:15.733Z,9.00
2018-11-14T12:55:44.463Z,8.70
2018-11-14T12:58:13.163Z,8.60
2018-11-14T13:00:42.015Z,8.80
2018-11-14T13:03:10.643Z,9.00
2018-11-14T13:05:39.329Z,8.90
2018-11-14T13:08:08.035Z,8.80
2018-11-14T13:10:36.822Z,8.80
2018-11-14T13:13:05.682Z,8.90
2018-11-14T13:15:34.362Z,9.00
2018-11-14T13:18:03.108Z,9.00
2018-11-14T13:20:31.824Z,9.10
2018-11-14T13:23:00.495Z,8.90
2018-11-14T13:25:29.214Z,8.60
2018-11-14T13:27:58.978Z,8.50
2018-11-14T13:30:27.748Z,8.40
2018-11-14T13:32:56.881Z,8.30
2018-11-14T13:35:26.189Z,8.30
2018-11-14T13:37:55.015Z,8.20
2018-11-14T13:40:24.128Z,8.20
2018-11-14T13:42:52.973Z,8.00
2018-11-14T13:45:22.941Z,7.80
2018-11-14T13:47:51.895Z,7.80
2018-11-14T13:50:22.085Z,7.80
2018-11-14T13:52:51.089Z,7.80
2018-11-14T13:55:21.224Z,7.70
2018-11-14T13:57:51.315Z,7.60
2018-11-14T14:00:22.238Z,7.60
2018-11-14T14:02:52.153Z,7.60
2018-11-14T14:05:22.123Z,7.60
2018-11-14T14:07:57.312Z,7.50
2018-11-14T14:10:26.001Z,7.60
2018-11-14T14:12:55.247Z,7.50
2018-11-14T14:15:25.391Z,7.30
2018-11-14T14:17:54.619Z,7.30
2018-11-14T14:20:23.877Z,7.30
2018-11-14T14:22:52.784Z,7.40
2018-11-14T14:25:22.673Z,7.40
2018-11-14T14:27:52.543Z,7.40
2018-11-14T14:30:22.535Z,7.40
2018-11-14T14:32:51.687Z,7.40
2018-11-14T14:35:21.749Z,7.40
2018-11-14T14:37:50.776Z,7.50
2018-11-14T14:40:20.980Z,7.40
2018-11-14T14:42:49.869Z,7.50
2018-11-14T14:45:20.072Z,7.50
2018-11-14T14:47:48.811Z,7.50
2018-11-14T14:50:18.571Z,7.50
2018-11-14T14:52:47.722Z,7.50
2018-11-14T14:55:19.210Z,7.50
2018-11-14T14:57:48.769Z,7.40
2018-11-14T15:00:22.393Z,7.30
2018-11-14T15:02:51.295Z,7.30
2018-11-14T15:05:20.096Z,7.20
2018-11-14T15:07:49.023Z,7.20
2018-11-14T15:10:19.935Z,7.30
2018-11-14T15:12:48.708Z,7.20
2018-11-14T15:15:17.906Z,7.20
2018-11-14T15:17:46.609Z,7.20
2018-11-14T15:20:24.303Z,7.20
2018-11-14T15:22:53.286Z,7.20
2018-11-14T15:25:23.056Z,7.20
2018-11-14T15:27:52.533Z,7.20
2018-11-14T15:30:23.671Z,7.20
2018-11-14T15:32:52.576Z,7.20
2018-11-14T15:35:21.337Z,7.30
2018-11-14T15:37:50.240Z,7.20
2018-11-14T15:40:20.474Z,7.20
2018-11-14T15:42:49.610Z,7.20
2018-11-14T15:45:24.351Z,7.20
2018-11-14T15:47:53.625Z,7.30
2018-11-14T15:50:26.880Z,7.30
2018-11-14T15:52:56.629Z,7.30
2018-11-14T15:55:26.068Z,7.30
2018-11-14T15:57:55.420Z,7.30
2018-11-14T16:00:27.075Z,7.40
2018-11-14T16:02:56.316Z,7.40
2018-11-14T16:05:26.253Z,7.40
2018-11-14T16:07:56.349Z,7.40
2018-11-14T16:10:26.381Z,7.40
2018-11-14T16:12:55.349Z,7.40
2018-11-14T16:15:25.741Z,7.40
2018-11-14T16:17:54.717Z,7.40
2018-11-14T16:20:24.929Z,7.40
2018-11-14T16:22:53.660Z,7.50
2018-11-14T16:25:23.930Z,7.50
2018-11-14T16:27:54.973Z,7.50
2018-11-14T16:30:25.685Z,7.50
2018-11-14T16:32:55.910Z,7.50
2018-11-14T16:35:25.528Z,7.50
2018-11-14T16:37:54.903Z,7.50
2018-11-14T16:40:26.181Z,7.50
2018-11-14T16:42:56.291Z,7.50
2018-11-14T16:45:26.476Z,7.50
2018-11-14T16:47:55.292Z,7.60
2018-11-14T16:50:24.772Z,7.60
2018-11-14T16:52:53.718Z,7.60
2018-11-14T16:55:23.078Z,7.60
2018-11-14T16:57:52.872Z,7.60
2018-11-14T17:00:24.272Z,7.60
2018-11-14T17:02:53.520Z,7.60
2018-11-14T17:05:23.229Z,7.60
2018-11-14T17:07:52.370Z,7.70
2018-11-14T17:10:21.894Z,7.70
2018-11-14T17:12:52.795Z,7.70
2018-11-14T17:15:23.597Z,7.70
2018-11-14T17:17:52.843Z,7.70
2018-11-14T17:20:22.189Z,7.70
2018-11-14T17:22:52.686Z,7.70
2018-11-14T17:25:21.880Z,7.70
2018-11-14T17:27:50.908Z,7.70
2018-11-14T17:30:25.124Z,7.70
2018-11-14T17:32:55.100Z,7.70
2018-11-14T17:35:24.080Z,7.70
2018-11-14T17:37:53.008Z,7.70
2018-11-14T17:40:25.920Z,7.70
2018-11-14T17:42:55.213Z,7.80
2018-11-14T17:45:26.158Z,7.70
2018-11-14T17:47:55.595Z,7.70
2018-11-14T17:50:25.822Z,7.70
2018-11-14T17:52:55.601Z,7.60
2018-11-14T17:55:25.248Z,7.60
2018-11-14T17:57:54.529Z,7.60
2018-11-14T18:00:25.591Z,7.60
2018-11-14T18:02:54.864Z,7.50
2018-11-14T18:05:24.941Z,7.60
2018-11-14T18:07:54.407Z,7.50
2018-11-14T18:10:26.176Z,7.50
2018-11-14T18:12:56.210Z,7.50
2018-11-14T18:15:24.985Z,7.50
2018-11-14T18:17:54.769Z,7.50
2018-11-14T18:20:25.159Z,7.40
2018-11-14T18:22:54.836Z,7.40
2018-11-14T18:25:23.936Z,7.30
2018-11-14T18:27:53.136Z,7.40
2018-11-14T18:30:24.517Z,7.30
2018-11-14T18:32:54.153Z,7.30
2018-11-14T18:35:23.494Z,7.30
2018-11-14T18:37:53.401Z,7.30
2018-11-14T18:40:23.835Z,7.20
2018-11-14T18:42:53.134Z,7.20
2018-11-14T18:45:25.482Z,7.20
2018-11-14T18:47:55.231Z,7.10
2018-11-14T18:50:24.793Z,7.10
2018-11-14T18:52:53.837Z,7.10
2018-11-14T18:55:24.290Z,7.10
2018-11-14T18:57:53.234Z,7.10
2018-11-14T19:00:23.706Z,7.10
2018-11-14T19:02:52.622Z,7.10
2018-11-14T19:05:21.632Z,7.00
2018-11-14T19:07:50.761Z,7.00
2018-11-14T19:10:21.337Z,7.00
2018-11-14T19:12:50.933Z,7.00
2018-11-14T19:15:27.064Z,7.00
2018-11-14T19:17:56.012Z,7.10
2018-11-14T19:20:26.415Z,7.00
2018-11-14T19:22:56.181Z,7.00
2018-11-14T19:25:26.515Z,7.00
2018-11-14T19:27:55.372Z,7.00
2018-11-14T19:30:25.992Z,7.00
2018-11-14T19:32:55.241Z,7.00
2018-11-14T19:35:24.433Z,7.00
2018-11-14T19:37:53.892Z,6.90
2018-11-14T19:40:25.457Z,7.00
2018-11-14T19:42:55.988Z,6.90
2018-11-14T19:45:27.883Z,6.90
2018-11-14T19:47:57.176Z,6.90
2018-11-14T19:50:26.505Z,6.90
2018-11-14T19:52:56.207Z,6.90
2018-11-14T19:55:26.045Z,6.80
2018-11-14T19:57:56.211Z,6.80
2018-11-14T20:00:29.664Z,6.70
2018-11-14T20:02:58.532Z,6.60
2018-11-14T20:05:28.532Z,6.60
2018-11-14T20:07:57.739Z,6.60
2018-11-14T20:10:27.925Z,6.50
2018-11-14T20:12:56.744Z,6.50
2018-11-14T20:15:29.004Z,6.50
2018-11-14T20:17:58.220Z,6.40
2018-11-14T20:20:28.470Z,6.40
2018-11-14T20:22:57.270Z,6.40
2018-11-14T20:25:26.216Z,6.40
2018-11-14T20:27:55.465Z,6.30
2018-11-14T20:30:26.161Z,6.30
2018-11-14T20:32:56.057Z,6.30
2018-11-14T20:35:25.792Z,6.30
2018-11-14T20:37:54.998Z,6.20
2018-11-14T20:40:24.152Z,6.20
2018-11-14T20:42:53.590Z,6.20
2018-11-14T20:45:33.496Z,6.10
2018-11-14T20:48:02.653Z,6.10
2018-11-14T20:50:31.493Z,6.10
2018-11-14T20:53:02.145Z,6.10
2018-11-14T20:55:32.247Z,6.10
2018-11-14T20:58:01.866Z,6.10
2018-11-14T21:00:33.849Z,6.00
2018-11-14T21:03:03.067Z,5.90
2018-11-14T21:05:32.214Z,5.90
2018-11-14T21:08:00.996Z,5.90
2018-11-14T21:10:31.325Z,5.90
2018-11-14T21:13:01.081Z,5.80
2018-11-14T21:15:31.436Z,5.70
2018-11-14T21:18:01.268Z,5.70
2018-11-14T21:20:30.101Z,5.70
2018-11-14T21:22:58.931Z,5.70
2018-11-14T21:25:28.342Z,5.80
2018-11-14T21:27:57.647Z,5.70
2018-11-14T21:30:27.976Z,5.70
2018-11-14T21:32:56.909Z,5.70
2018-11-14T21:35:29.561Z,5.70
2018-11-14T21:37:59.358Z,5.70
2018-11-14T21:40:28.509Z,5.60
2018-11-14T21:42:57.357Z,5.70
2018-11-14T21:45:34.518Z,5.70
2018-11-14T21:48:08.453Z,5.70
2018-11-14T21:50:37.145Z,5.70
2018-11-14T21:53:05.983Z,5.70
2018-11-14T21:55:34.852Z,5.70
2018-11-14T21:58:04.156Z,5.70
2018-11-14T22:00:35.570Z,5.70
2018-11-14T22:03:04.792Z,5.80
2018-11-14T22:05:34.261Z,5.80
2018-11-14T22:08:03.210Z,5.60
2018-11-14T22:10:32.042Z,5.60
2018-11-14T22:13:00.971Z,5.70
2018-11-14T22:15:30.716Z,5.70
2018-11-14T22:17:59.454Z,5.70
2018-11-14T22:20:29.132Z,5.70
2018-11-14T22:22:57.812Z,5.70
2018-11-14T22:25:27.734Z,5.70
2018-11-14T22:27:57.788Z,5.70
2018-11-14T22:30:28.307Z,5.70
2018-11-14T22:32:57.154Z,5.70
2018-11-14T22:35:27.093Z,5.70
2018-11-14T22:37:56.069Z,5.70
2018-11-14T22:40:27.255Z,5.80
2018-11-14T22:42:56.063Z,5.80
2018-11-14T22:45:28.784Z,5.70
2018-11-14T22:47:57.579Z,5.90
2018-11-14T22:50:26.886Z,5.80
2018-11-14T22:52:56.146Z,5.90
2018-11-14T22:55:26.050Z,5.80
2018-11-14T22:57:55.148Z,5.90
2018-11-14T23:00:29.140Z,5.90
2018-11-14T23:02:59.999Z,5.90
2018-11-14T23:05:29.140Z,5.90
2018-11-14T23:07:58.494Z,6.00
2018-11-14T23:10:27.577Z,6.00
2018-11-14T23:12:56.373Z,5.90
2018-11-14T23:15:25.426Z,5.90
2018-11-14T23:17:54.274Z,5.90
2018-11-14T23:20:23.096Z,5.90
2018-11-14T23:22:52.715Z,6.00
2018-11-14T23:25:22.384Z,6.00
2018-11-14T23:27:52.611Z,6.00
2018-11-14T23:30:22.843Z,6.00
2018-11-14T23:32:52.803Z,6.00
2018-11-14T23:35:23.307Z,6.00
2018-11-14T23:37:58.724Z,6.00
2018-11-14T23:40:27.748Z,6.00
2018-11-14T23:42:56.431Z,6.00
2018-11-14T23:45:26.400Z,6.00
2018-11-14T23:47:55.325Z,6.00
2018-11-14T23:50:27.080Z,6.10
2018-11-14T23:52:56.932Z,6.00
2018-11-14T23:55:26.432Z,6.10
2018-11-14T23:57:55.639Z,6.10
